Time;durP1;ratioP1;P1;durP2;ratioP2;P2;SDS_P1;SDS_P2;PMS_P1;PMS_P2;Temp;Humidity;BMP_temperature;BMP_pressure;BME280_temperature;BME280_humidity;BME280_pressure;Samples;Min_cycle;Max_cycle;Signal;HPM_P1;HPM_P2
2023/12/03 00:00:07;;;;;;;53.38;26.92;;;;;;;2.45;75.82;99928.47;5010273;28;20391;-79
2023/12/03 00:02:36;;;;;;;60.65;27.85;;;;;;;2.46;75.61;99935.38;5010512;28;20089;-80
2023/12/03 00:05:03;;;;;;;64.18;28.95;;;;;;;2.49;75.77;99934.44;5010521;28;20518;-80
2023/12/03 00:07:31;;;;;;;55.63;27.80;;;;;;;2.50;75.84;99935.31;5011790;28;20046;-79
2023/12/03 00:09:58;;;;;;;56.65;27.88;;;;;;;2.51;75.63;99937.88;5014195;28;20042;-79
2023/12/03 00:12:25;;;;;;;62.58;28.40;;;;;;;2.52;75.96;99933.53;5014006;28;20129;-79
2023/12/03 00:14:51;;;;;;;62.38;28.40;;;;;;;2.52;75.84;99936.97;5013822;28;20053;-79
2023/12/03 00:17:18;;;;;;;55.40;26.70;;;;;;;2.54;75.68;99931.75;5013922;28;20049;-78
2023/12/03 00:19:44;;;;;;;61.15;28.80;;;;;;;2.54;75.87;99930.00;5013998;28;20141;-79
2023/12/03 00:22:11;;;;;;;57.60;28.20;;;;;;;2.56;75.65;99924.78;5014060;28;20050;-79
2023/12/03 00:24:37;;;;;;;63.15;30.50;;;;;;;2.55;76.30;99931.69;5013856;28;20046;-79
2023/12/03 00:27:05;;;;;;;62.35;28.50;;;;;;;2.57;75.93;99931.66;5013858;28;20054;-79
2023/12/03 00:29:32;;;;;;;60.60;29.73;;;;;;;2.59;75.91;99932.50;5013732;28;20060;-78
2023/12/03 00:31:59;;;;;;;57.22;28.75;;;;;;;2.58;75.86;99931.66;5013577;28;20067;-79
2023/12/03 00:34:25;;;;;;;61.17;29.35;;;;;;;2.59;76.00;99932.50;5013590;28;20050;-80
2023/12/03 00:36:52;;;;;;;62.22;29.65;;;;;;;2.60;76.09;99936.81;5013735;28;20100;-79
2023/12/03 00:39:18;;;;;;;53.85;27.73;;;;;;;2.62;75.99;99939.38;4996243;28;20050;-81
2023/12/03 00:41:45;;;;;;;57.35;28.35;;;;;;;2.63;76.18;99935.88;4996228;28;20132;-79
2023/12/03 00:44:12;;;;;;;59.72;27.90;;;;;;;2.65;76.61;99934.13;5013409;28;20108;-79
2023/12/03 00:46:39;;;;;;;61.30;28.13;;;;;;;2.67;76.26;99934.94;5013467;28;20407;-79
2023/12/03 00:49:06;;;;;;;54.47;27.23;;;;;;;2.68;76.24;99934.91;5013499;28;20053;-79
2023/12/03 00:51:32;;;;;;;60.72;28.38;;;;;;;2.71;76.15;99936.59;5013461;28;20054;-79
2023/12/03 00:53:59;;;;;;;56.03;28.30;;;;;;;2.72;76.12;99928.75;5013222;28;20053;-80
2023/12/03 00:56:25;;;;;;;51.97;26.02;;;;;;;2.76;76.27;99929.53;5013462;28;20050;-77
2023/12/03 00:58:52;;;;;;;54.50;27.15;;;;;;;2.79;76.56;99936.41;5013160;28;20089;-78
2023/12/03 01:01:22;;;;;;;47.75;24.80;;;;;;;2.80;76.08;99943.34;4995972;28;20049;-78
2023/12/03 01:03:49;;;;;;;50.97;25.77;;;;;;;2.83;76.53;99940.66;5013431;28;20068;-79
2023/12/03 01:06:15;;;;;;;57.50;26.02;;;;;;;2.85;76.15;99937.13;5013274;28;20050;-79
2023/12/03 01:08:42;;;;;;;57.03;27.55;;;;;;;2.88;76.53;99932.75;5012975;28;20127;-77
2023/12/03 01:11:09;;;;;;;58.28;27.15;;;;;;;2.90;76.32;99936.16;4995644;28;20489;-79
2023/12/03 01:13:35;;;;;;;54.33;26.35;;;;;;;2.91;75.96;99937.91;5013052;28;20410;-77
2023/12/03 01:16:03;;;;;;;60.35;26.88;;;;;;;2.92;75.51;99945.66;5013105;28;20049;-79
2023/12/03 01:18:29;;;;;;;52.42;26.60;;;;;;;2.92;76.08;99948.25;5012901;28;20152;-78
2023/12/03 01:20:56;;;;;;;53.63;26.45;;;;;;;2.93;76.10;99955.19;5013014;28;20054;-79
2023/12/03 01:23:23;;;;;;;52.20;26.25;;;;;;;2.95;75.94;99963.78;5012906;28;20046;-77
2023/12/03 01:25:50;;;;;;;53.28;25.30;;;;;;;2.96;75.89;99964.66;5012668;28;20065;-78
2023/12/03 01:28:20;;;;;;;52.60;25.05;;;;;;;2.96;76.12;99960.28;5012644;28;20050;-78
2023/12/03 01:30:47;;;;;;;58.38;26.40;;;;;;;2.97;75.65;99955.97;5012925;28;20073;-80
2023/12/03 01:33:13;;;;;;;52.90;25.20;;;;;;;2.98;75.92;99962.88;4995337;28;20092;-79
2023/12/03 01:35:40;;;;;;;50.22;24.58;;;;;;;2.98;76.22;99962.88;5012462;28;20053;-79
2023/12/03 01:38:07;;;;;;;56.63;24.92;;;;;;;3.00;76.13;99966.31;5012617;28;20132;-79
2023/12/03 01:40:33;;;;;;;56.45;26.55;;;;;;;2.99;75.68;99970.63;5012377;28;20072;-78
2023/12/03 01:43:00;;;;;;;53.53;27.42;;;;;;;2.99;75.57;99973.22;5012388;28;20054;-80
2023/12/03 01:45:26;;;;;;;51.75;26.08;;;;;;;2.99;75.67;99988.84;5012195;28;20466;-79
2023/12/03 01:47:54;;;;;;;54.83;27.02;;;;;;;2.99;75.92;99985.41;5012467;28;20057;-79
2023/12/03 01:50:22;;;;;;;52.58;25.52;;;;;;;2.99;76.01;99980.19;5012333;28;20050;-77
2023/12/03 01:52:49;;;;;;;55.72;26.38;;;;;;;2.98;75.82;99987.13;5012367;28;20093;-79
2023/12/03 01:55:20;;;;;;;56.40;25.98;;;;;;;2.97;75.93;99987.16;5012057;28;20112;-79
2023/12/03 01:57:46;;;;;;;48.72;25.30;;;;;;;2.98;76.19;99988.88;5015668;28;20049;-78
2023/12/03 02:00:13;;;;;;;58.97;27.77;;;;;;;2.98;76.23;99994.94;5032031;28;20053;-79
2023/12/03 02:02:40;;;;;;;52.60;27.27;;;;;;;2.97;76.06;99993.22;5031938;28;20501;-79
2023/12/03 02:05:07;;;;;;;54.50;25.88;;;;;;;2.98;75.97;100005.34;5014117;28;20103;-79
2023/12/03 02:07:34;;;;;;;55.75;26.50;;;;;;;2.98;75.67;100005.34;5031616;28;20169;-78
2023/12/03 02:10:01;;;;;;;53.50;26.75;;;;;;;2.98;76.26;100010.53;5031898;28;20053;-78
2023/12/03 02:12:27;;;;;;;51.60;25.75;;;;;;;2.99;75.71;100012.25;5014233;28;20091;-78
2023/12/03 02:14:54;;;;;;;53.92;26.33;;;;;;;2.98;75.77;100015.75;5031477;28;20049;-79
2023/12/03 02:17:20;;;;;;;52.70;25.73;;;;;;;2.97;75.63;100019.25;5031692;28;20089;-80
2023/12/03 02:19:47;;;;;;;56.28;25.48;;;;;;;2.96;75.91;100012.31;5031381;28;20053;-77
2023/12/03 02:22:13;;;;;;;57.42;27.55;;;;;;;2.95;75.40;100007.16;5031416;28;20061;-79
2023/12/03 02:24:40;;;;;;;54.95;27.33;;;;;;;2.93;75.61;100007.19;5031464;28;20045;-79
2023/12/03 02:27:06;;;;;;;56.47;26.80;;;;;;;2.91;76.04;100008.13;5031613;28;20060;-77
2023/12/03 02:29:33;;;;;;;49.13;24.77;;;;;;;2.90;75.82;100017.66;5030770;28;20152;-78
2023/12/03 02:31:59;;;;;;;55.67;28.10;;;;;;;2.86;75.56;100014.25;5031342;28;20152;-79
2023/12/03 02:34:26;;;;;;;52.63;26.48;;;;;;;2.85;75.77;100014.28;5031154;28;20053;-78
2023/12/03 02:36:53;;;;;;;59.28;28.23;;;;;;;2.84;75.99;100015.19;5031198;28;20482;-79
2023/12/03 02:39:19;;;;;;;55.65;27.85;;;;;;;2.83;75.66;100014.31;5031408;28;20056;-78
2023/12/03 02:41:46;;;;;;;51.20;25.98;;;;;;;2.81;75.85;100013.47;5013968;28;20049;-78
2023/12/03 02:44:12;;;;;;;53.58;26.80;;;;;;;2.81;75.63;100012.63;5013528;28;20115;-79
2023/12/03 02:46:39;;;;;;;52.83;26.67;;;;;;;2.81;75.86;100007.44;5031205;28;20123;-78
2023/12/03 02:49:05;;;;;;;57.65;27.15;;;;;;;2.79;75.67;100017.00;5030955;28;20140;-78
2023/12/03 02:51:32;;;;;;;57.30;27.77;;;;;;;2.78;75.86;100018.75;5031069;28;20088;-78
2023/12/03 02:54:00;;;;;;;55.65;25.63;;;;;;;2.78;76.32;100018.75;5013554;28;20053;-79
2023/12/03 02:56:26;;;;;;;55.65;26.52;;;;;;;2.79;75.90;100020.47;5031127;28;20434;-78
2023/12/03 02:58:53;;;;;;;56.47;27.17;;;;;;;2.80;76.16;100022.16;5030945;28;20144;-80
2023/12/03 03:01:19;;;;;;;60.90;28.85;;;;;;;2.79;75.96;100025.66;5030914;28;20053;-79
2023/12/03 03:03:45;;;;;;;59.42;28.48;;;;;;;2.80;76.06;100021.34;5030804;28;20080;-78
2023/12/03 03:06:12;;;;;;;63.28;30.15;;;;;;;2.79;75.96;100025.66;5013003;28;20045;-79
2023/12/03 03:08:39;;;;;;;66.30;29.52;;;;;;;2.78;75.87;100026.56;5030862;28;20053;-77
2023/12/03 03:11:06;;;;;;;57.45;27.75;;;;;;;2.77;75.51;100026.59;5030904;28;20084;-78
2023/12/03 03:13:32;;;;;;;59.00;27.42;;;;;;;2.73;75.59;100024.03;5030796;28;20049;-79
2023/12/03 03:15:59;;;;;;;61.17;28.67;;;;;;;2.73;75.62;100034.44;5030601;28;20061;-79
2023/12/03 03:18:25;;;;;;;60.00;27.20;;;;;;;2.72;75.65;100031.88;5030664;28;20053;-79
2023/12/03 03:20:52;;;;;;;61.13;27.40;;;;;;;2.71;75.82;100041.44;5030534;28;20053;-78
2023/12/03 03:23:18;;;;;;;62.95;27.27;;;;;;;2.70;76.25;100042.28;5030854;28;20081;-78
2023/12/03 03:25:45;;;;;;;54.70;26.10;;;;;;;2.71;76.20;100046.63;5030554;28;20136;-79
2023/12/03 03:28:11;;;;;;;58.00;27.25;;;;;;;2.71;76.01;100046.63;5030581;28;20050;-78
2023/12/03 03:30:38;;;;;;;59.40;25.83;;;;;;;2.73;76.26;100046.59;5013041;28;20053;-79
2023/12/03 03:33:05;;;;;;;54.22;24.40;;;;;;;2.76;76.53;100054.31;5030461;28;20049;-79
2023/12/03 03:35:33;;;;;;;53.80;24.00;;;;;;;2.78;76.72;100060.34;5030819;28;20107;-79
2023/12/03 03:37:59;;;;;;;53.88;26.35;;;;;;;2.81;76.49;100062.03;5030405;28;20089;-78
2023/12/03 03:40:26;;;;;;;53.47;26.17;;;;;;;2.84;76.38;100061.97;5030524;28;20072;-79
2023/12/03 03:42:52;;;;;;;55.95;25.55;;;;;;;2.85;76.42;100061.94;5032749;28;20132;-78
2023/12/03 03:45:19;;;;;;;52.63;25.15;;;;;;;2.86;76.10;100061.06;5034193;28;20054;-79
2023/12/03 03:47:45;;;;;;;57.35;26.83;;;;;;;2.88;75.73;100054.97;5016780;28;20549;-83
2023/12/03 03:50:12;;;;;;;60.47;26.95;;;;;;;2.88;76.02;100057.56;5034254;28;20057;-79
2023/12/03 03:52:39;;;;;;;55.50;26.85;;;;;;;2.88;76.13;100065.38;5034421;28;20045;-79
2023/12/03 03:55:06;;;;;;;57.92;25.98;;;;;;;2.86;76.10;100068.88;5034244;28;20095;-79
2023/12/03 03:57:33;;;;;;;49.85;23.77;;;;;;;2.86;75.87;100068.88;5034234;28;20111;-78
2023/12/03 03:59:59;;;;;;;50.58;23.15;;;;;;;2.86;75.91;100068.00;5034099;28;20060;-79
2023/12/03 04:02:26;;;;;;;52.50;23.50;;;;;;;2.85;75.63;100067.13;5034076;28;20095;-78
2023/12/03 04:04:52;;;;;;;53.58;24.13;;;;;;;2.84;75.81;100069.78;5034077;28;20089;-79
2023/12/03 04:07:19;;;;;;;51.25;24.02;;;;;;;2.83;75.62;100074.13;5034279;28;20089;-79
2023/12/03 04:09:46;;;;;;;53.38;25.17;;;;;;;2.82;75.56;100069.81;5033980;28;20049;-80
2023/12/03 04:12:12;;;;;;;55.35;24.35;;;;;;;2.80;75.66;100068.97;5034040;28;20054;-79
2023/12/03 04:14:40;;;;;;;54.05;24.55;;;;;;;2.79;75.53;100075.06;5033684;28;20722;-79
2023/12/03 04:17:08;;;;;;;50.75;24.52;;;;;;;2.80;75.91;100081.13;5016164;28;20644;-79
2023/12/03 04:19:36;;;;;;;56.42;24.75;;;;;;;2.77;75.64;100084.66;5033735;28;20064;-79
2023/12/03 04:22:02;;;;;;;56.22;25.45;;;;;;;2.77;76.33;100079.44;5033939;28;20103;-79
2023/12/03 04:24:29;;;;;;;53.85;25.40;;;;;;;2.74;75.77;100080.34;5033667;28;20049;-80
2023/12/03 04:26:56;;;;;;;53.60;24.55;;;;;;;2.74;75.95;100085.53;5033605;28;20051;-79
2023/12/03 04:29:22;;;;;;;57.95;25.35;;;;;;;2.73;75.90;100077.78;5015732;28;20107;-79
2023/12/03 04:31:49;;;;;;;60.67;25.25;;;;;;;2.72;75.44;100083.84;5033755;28;20061;-79
2023/12/03 04:34:15;;;;;;;52.75;24.40;;;;;;;2.71;75.91;100090.81;5033243;28;20479;-79
2023/12/03 04:36:43;;;;;;;47.70;22.85;;;;;;;2.70;76.13;100093.44;5016072;28;20049;-79
2023/12/03 04:39:10;;;;;;;49.53;22.27;;;;;;;2.70;75.98;100094.28;5033470;28;20440;-77
2023/12/03 04:41:40;;;;;;;51.72;23.95;;;;;;;2.70;76.14;100093.44;5033427;28;20132;-78
2023/12/03 04:44:07;;;;;;;58.20;25.23;;;;;;;2.69;75.90;100092.56;5033137;28;20061;-78
2023/12/03 04:46:33;;;;;;;50.65;23.52;;;;;;;2.69;76.09;100089.13;5033337;28;20045;-79
2023/12/03 04:49:00;;;;;;;47.22;23.25;;;;;;;2.68;76.02;100087.41;5033083;28;20092;-79
2023/12/03 04:51:27;;;;;;;56.90;25.23;;;;;;;2.67;75.90;100099.56;5033335;28;20041;-80
2023/12/03 04:53:53;;;;;;;52.65;24.73;;;;;;;2.66;75.85;100097.84;5032491;28;20051;-77
2023/12/03 04:56:20;;;;;;;54.50;24.55;;;;;;;2.65;75.93;100101.31;5033383;28;20140;-77
2023/12/03 04:58:46;;;;;;;57.03;24.98;;;;;;;2.64;75.55;100093.53;5015349;28;20065;-79
2023/12/03 05:01:13;;;;;;;52.75;24.85;;;;;;;2.62;75.84;100101.41;5033209;28;20108;-80
2023/12/03 05:03:47;;;;;;;51.13;23.77;;;;;;;2.60;75.88;100103.16;5033135;28;20054;-78
2023/12/03 05:06:14;;;;;;;47.85;22.60;;;;;;;2.58;75.96;100099.72;5015529;28;20127;-79
2023/12/03 05:08:40;;;;;;;51.65;23.02;;;;;;;2.56;76.08;100101.50;5032770;28;20132;-80
2023/12/03 05:11:07;;;;;;;50.03;22.45;;;;;;;2.55;76.09;100097.19;5032735;28;20081;-79
2023/12/03 05:13:34;;;;;;;48.50;22.52;;;;;;;2.55;75.77;100099.78;5032975;28;20042;-80
2023/12/03 05:16:02;;;;;;;49.55;21.83;;;;;;;2.55;76.19;100104.97;5032728;28;20130;-79
2023/12/03 05:18:28;;;;;;;50.58;22.27;;;;;;;2.54;76.48;100108.47;5015173;28;20053;-79
2023/12/03 05:20:57;;;;;;;47.05;21.67;;;;;;;2.54;75.60;100108.47;5032587;28;20506;-78
2023/12/03 05:23:24;;;;;;;48.53;21.52;;;;;;;2.51;75.85;100101.59;5032590;28;20049;-80
2023/12/03 05:25:52;;;;;;;45.33;21.90;;;;;;;2.50;75.88;100104.22;5032337;28;20065;-79
2023/12/03 05:28:19;;;;;;;46.80;20.80;;;;;;;2.48;76.23;100105.06;5032554;28;20041;-79
2023/12/03 05:30:45;;;;;;;49.78;20.60;;;;;;;2.46;75.54;100116.38;5032434;28;20056;-79
2023/12/03 05:33:12;;;;;;;45.08;20.77;;;;;;;2.43;76.19;100112.09;5032762;28;20060;-79
2023/12/03 05:35:39;;;;;;;52.80;23.63;;;;;;;2.41;75.95;100124.28;5014746;28;20057;-79
2023/12/03 05:38:05;;;;;;;43.65;21.15;;;;;;;2.40;75.64;100127.75;5032549;28;20144;-78
2023/12/03 05:40:32;;;;;;;49.15;20.55;;;;;;;2.38;75.90;100123.44;5014633;28;20482;-79
2023/12/03 05:43:00;;;;;;;49.22;23.20;;;;;;;2.34;76.18;100135.63;5032356;28;20053;-78
2023/12/03 05:45:27;;;;;;;48.70;20.95;;;;;;;2.33;75.69;100136.53;5014343;28;20049;-80
2023/12/03 05:47:54;;;;;;;48.83;20.98;;;;;;;2.30;75.96;100136.56;5032105;28;20048;-78
2023/12/03 05:50:21;;;;;;;47.35;20.83;;;;;;;2.31;76.54;100138.28;5032038;28;20410;-78
2023/12/03 05:52:48;;;;;;;46.22;20.52;;;;;;;2.29;76.80;100145.25;5031943;28;20057;-79
2023/12/03 05:55:15;;;;;;;51.22;22.50;;;;;;;2.29;76.60;100145.25;5032052;28;20041;-79
2023/12/03 05:57:41;;;;;;;50.20;21.30;;;;;;;2.29;76.37;100140.94;5032085;28;20132;-78
2023/12/03 06:00:08;;;;;;;44.83;21.38;;;;;;;2.28;76.60;100144.38;5032098;28;20131;-78
2023/12/03 06:02:35;;;;;;;50.45;21.77;;;;;;;2.28;76.04;100135.75;5031931;28;20053;-79
2023/12/03 06:05:02;;;;;;;48.15;21.67;;;;;;;2.28;76.62;100146.16;5030809;28;20050;-79
2023/12/03 06:07:29;;;;;;;46.05;20.30;;;;;;;2.27;77.15;100144.41;5031712;28;20053;-77
2023/12/03 06:09:55;;;;;;;49.60;20.60;;;;;;;2.27;76.69;100144.41;5031841;28;20141;-79
2023/12/03 06:12:22;;;;;;;45.95;20.17;;;;;;;2.27;76.87;100139.22;5031791;28;20111;-79
2023/12/03 06:14:48;;;;;;;45.80;20.42;;;;;;;2.28;77.13;100146.16;5031734;28;20046;-79
2023/12/03 06:17:15;;;;;;;51.25;21.35;;;;;;;2.29;77.29;100153.91;5014125;28;20053;-78
2023/12/03 06:19:41;;;;;;;49.22;20.45;;;;;;;2.30;76.61;100153.03;5031522;28;20136;-78
2023/12/03 06:22:08;;;;;;;45.08;20.48;;;;;;;2.32;77.15;100158.22;5031751;28;20049;-80
2023/12/03 06:24:35;;;;;;;43.97;19.52;;;;;;;2.33;77.16;100152.13;5031499;28;20053;-79
2023/12/03 06:27:02;;;;;;;50.28;19.63;;;;;;;2.34;77.39;100154.69;5031415;28;20425;-78
2023/12/03 06:29:28;;;;;;;54.20;20.15;;;;;;;2.37;76.74;100158.13;5013794;28;20055;-80
2023/12/03 06:31:55;;;;;;;43.03;19.75;;;;;;;2.37;76.93;100158.97;5031235;28;20478;-81
2023/12/03 06:34:22;;;;;;;47.35;20.10;;;;;;;2.39;76.69;100157.19;5013443;28;20058;-82
2023/12/03 06:36:48;;;;;;;51.67;20.10;;;;;;;2.41;77.07;100170.16;5031561;28;20049;-83
2023/12/03 06:39:15;;;;;;;49.78;20.48;;;;;;;2.43;76.60;100168.41;5013789;28;20560;-82
2023/12/03 06:41:41;;;;;;;54.78;19.58;;;;;;;2.43;77.27;100171.84;5031276;28;20064;-84
2023/12/03 06:44:08;;;;;;;47.83;20.45;;;;;;;2.43;77.30;100171.03;5031011;28;20049;-80
2023/12/03 06:46:41;;;;;;;56.42;20.92;;;;;;;2.43;76.86;100174.47;5013381;28;20140;-83
2023/12/03 06:49:09;;;;;;;46.63;19.27;;;;;;;2.44;76.87;100170.97;5013649;28;20049;-82
2023/12/03 06:51:35;;;;;;;49.22;19.33;;;;;;;2.45;76.83;100174.44;5031358;28;20107;-83
2023/12/03 06:54:03;;;;;;;50.97;19.88;;;;;;;2.44;76.88;100189.16;5030967;28;20049;-81
2023/12/03 06:56:29;;;;;;;41.95;18.85;;;;;;;2.46;76.84;100178.75;5031005;28;20088;-79
2023/12/03 06:58:56;;;;;;;45.97;18.52;;;;;;;2.46;77.44;100184.81;5030831;28;20053;-81
2023/12/03 07:01:22;;;;;;;48.28;18.65;;;;;;;2.48;77.50;100180.44;5030749;28;20502;-81
2023/12/03 07:03:49;;;;;;;44.08;17.88;;;;;;;2.52;77.83;100190.78;5013539;28;20454;-80
2023/12/03 07:06:15;;;;;;;37.88;17.65;;;;;;;2.54;77.60;100189.88;5030836;28;20183;-79
2023/12/03 07:08:44;;;;;;;41.92;18.50;;;;;;;2.57;77.29;100195.03;5013025;28;20049;-79
2023/12/03 07:11:13;;;;;;;36.95;16.23;;;;;;;2.60;77.47;100194.97;5030830;28;20058;-81
2023/12/03 07:13:40;;;;;;;42.78;17.00;;;;;;;2.65;77.64;100204.44;5030767;28;20115;-80
2023/12/03 07:16:09;;;;;;;38.67;16.50;;;;;;;2.67;77.44;100213.06;5012631;28;20045;-83
2023/12/03 07:18:35;;;;;;;39.95;18.20;;;;;;;2.69;77.56;100204.34;5013275;28;20052;-79
2023/12/03 07:21:02;;;;;;;41.10;17.73;;;;;;;2.73;77.68;100215.56;5013044;28;20599;-78
2023/12/03 07:23:29;;;;;;;43.30;17.45;;;;;;;2.77;77.82;100216.38;5013250;28;20045;-77
2023/12/03 07:25:55;;;;;;;43.15;17.85;;;;;;;2.80;77.41;100224.97;5030438;28;20128;-79
2023/12/03 07:28:22;;;;;;;42.88;17.67;;;;;;;2.85;77.53;100232.69;5030840;28;20119;-78
2023/12/03 07:30:49;;;;;;;39.05;16.75;;;;;;;2.88;77.14;100232.66;5012925;28;20564;-82
2023/12/03 07:33:15;;;;;;;40.22;17.48;;;;;;;2.91;77.57;100226.53;5030998;28;20140;-81
2023/12/03 07:35:42;;;;;;;40.33;16.60;;;;;;;2.94;77.12;100232.53;5030772;28;20045;-79
2023/12/03 07:38:08;;;;;;;49.63;19.27;;;;;;;2.97;77.02;100231.63;5030804;28;20143;-80
2023/12/03 07:40:35;;;;;;;45.88;18.10;;;;;;;3.00;77.05;100234.16;5030730;28;20088;-78
2023/12/03 07:43:01;;;;;;;44.63;18.08;;;;;;;3.02;77.45;100232.38;5013252;28;20115;-80
2023/12/03 07:45:28;;;;;;;45.60;19.27;;;;;;;3.05;77.02;100234.94;5012928;28;20080;-80
2023/12/03 07:47:55;;;;;;;48.67;19.67;;;;;;;3.07;77.14;100233.16;5030610;28;20144;-80
2023/12/03 07:50:21;;;;;;;45.60;18.80;;;;;;;3.10;77.31;100232.28;5013057;28;20502;-78
2023/12/03 07:52:48;;;;;;;63.17;19.98;;;;;;;3.13;76.89;100234.78;5013066;28;20085;-79
2023/12/03 07:55:15;;;;;;;57.40;21.58;;;;;;;3.15;77.08;100237.38;5012884;28;20072;-78
2023/12/03 07:57:41;;;;;;;79.60;20.67;;;;;;;3.17;77.27;100243.41;5030442;28;20421;-83
2023/12/03 08:00:08;;;;;;;78.78;21.27;;;;;;;3.19;76.83;100236.44;5030650;28;20049;-83
2023/12/03 08:02:35;;;;;;;71.93;21.55;;;;;;;3.20;76.57;100240.72;5030457;28;20049;-81
2023/12/03 08:05:01;;;;;;;105.63;20.13;;;;;;;3.21;77.13;100234.66;5030178;28;20479;-82
2023/12/03 08:07:28;;;;;;;71.20;20.65;;;;;;;3.21;76.62;100242.47;5012742;28;20060;-81
2023/12/03 08:09:54;;;;;;;74.20;22.13;;;;;;;3.20;76.79;100241.59;5029862;28;20791;-82
2023/12/03 08:12:21;;;;;;;78.10;21.33;;;;;;;3.20;76.76;100241.59;5030023;28;20053;-83
2023/12/03 08:14:48;;;;;;;59.00;21.23;;;;;;;3.20;77.02;100239.00;5030092;28;20486;-81
2023/12/03 08:17:14;;;;;;;53.65;19.73;;;;;;;3.20;77.06;100239.00;5030413;28;20137;-82
2023/12/03 08:19:41;;;;;;;59.38;19.80;;;;;;;3.22;77.07;100237.22;5030298;28;20148;-82
2023/12/03 08:22:07;;;;;;;76.10;20.05;;;;;;;3.24;77.26;100245.00;5030294;28;20135;-83
2023/12/03 08:24:34;;;;;;;108.00;22.27;;;;;;;3.25;77.31;100244.97;5030066;28;20061;-81
2023/12/03 08:27:01;;;;;;;77.25;22.40;;;;;;;3.26;77.29;100244.06;5012655;28;20061;-81
2023/12/03 08:29:27;;;;;;;72.97;23.13;;;;;;;3.29;77.48;100237.13;5033125;28;20046;-82
2023/12/03 08:31:54;;;;;;;75.28;21.85;;;;;;;3.30;77.23;100239.69;5033820;28;20060;-82
2023/12/03 08:34:20;;;;;;;70.15;22.00;;;;;;;3.34;77.33;100240.47;5033563;28;20072;-80
2023/12/03 08:36:47;;;;;;;96.45;25.42;;;;;;;3.35;77.54;100240.47;5033720;28;20057;-81
2023/12/03 08:39:14;;;;;;;95.72;23.45;;;;;;;3.38;77.38;100239.53;5015962;28;20088;-81
2023/12/03 08:41:41;;;;;;;79.22;22.77;;;;;;;3.39;77.14;100234.31;5033497;28;20107;-81
2023/12/03 08:44:07;;;;;;;66.80;23.50;;;;;;;3.41;77.13;100238.63;5033498;28;20062;-82
2023/12/03 08:46:34;;;;;;;85.47;25.20;;;;;;;3.43;77.45;100250.72;5033416;28;20156;-79
2023/12/03 08:49:00;;;;;;;69.28;24.25;;;;;;;3.44;77.37;100257.63;5033264;28;20095;-81
2023/12/03 08:51:27;;;;;;;127.63;27.48;;;;;;;3.44;77.28;100255.03;5033386;28;20053;-82
2023/12/03 08:53:55;;;;;;;91.25;25.52;;;;;;;3.46;77.37;100255.88;5032988;28;20100;-82
2023/12/03 08:56:21;;;;;;;100.47;25.98;;;;;;;3.46;77.45;100258.47;5015868;28;20053;-81
2023/12/03 08:58:48;;;;;;;103.45;28.00;;;;;;;3.47;76.85;100261.91;5015886;28;20081;-80
2023/12/03 09:01:14;;;;;;;75.13;28.00;;;;;;;3.49;76.87;100263.63;5033302;28;20136;-80
2023/12/03 09:03:41;;;;;;;67.55;28.52;;;;;;;3.47;76.76;100261.91;5033141;28;20053;-81
2023/12/03 09:06:08;;;;;;;69.72;29.75;;;;;;;3.46;76.83;100265.41;5032788;28;20050;-84
2023/12/03 09:08:35;;;;;;;71.47;31.13;;;;;;;3.46;77.09;100275.81;5032886;28;20045;-81
2023/12/03 09:11:03;;;;;;;71.22;30.02;;;;;;;3.44;76.99;100278.44;5033144;28;20076;-79
2023/12/03 09:13:30;;;;;;;64.20;30.58;;;;;;;3.44;76.76;100280.22;5033359;28;20065;-81
2023/12/03 09:15:56;;;;;;;70.93;32.50;;;;;;;3.41;77.14;100281.13;5032828;28;20041;-81
2023/12/03 09:18:23;;;;;;;71.57;31.33;;;;;;;3.41;77.15;100280.25;5032956;28;20053;-82
2023/12/03 09:20:50;;;;;;;63.42;30.67;;;;;;;3.40;77.39;100289.78;5032813;28;20456;-79
2023/12/03 09:23:17;;;;;;;72.90;32.15;;;;;;;3.41;77.16;100288.06;5032695;28;20104;-81
2023/12/03 09:25:44;;;;;;;74.68;33.40;;;;;;;3.42;77.16;100281.97;5032818;28;20160;-80
2023/12/03 09:28:11;;;;;;;66.28;30.83;;;;;;;3.42;77.41;100284.56;5032869;28;20413;-81
2023/12/03 09:30:37;;;;;;;64.53;31.38;;;;;;;3.44;77.13;100285.41;5032648;28;20049;-81
2023/12/03 09:33:06;;;;;;;70.70;31.63;;;;;;;3.44;77.24;100298.44;5032708;28;20053;-83
2023/12/03 09:35:33;;;;;;;62.45;29.92;;;;;;;3.45;77.42;100294.94;5014677;28;20060;-79
2023/12/03 09:38:00;;;;;;;64.05;31.00;;;;;;;3.44;77.27;100296.66;5032491;28;20129;-80
2023/12/03 09:40:26;;;;;;;61.60;29.40;;;;;;;3.44;77.23;100294.06;5014847;28;20059;-84
2023/12/03 09:42:53;;;;;;;65.20;31.23;;;;;;;3.45;76.96;100300.13;5032588;28;20050;-80
2023/12/03 09:45:26;;;;;;;64.53;31.90;;;;;;;3.44;76.90;100306.22;5032508;28;20517;-81
2023/12/03 09:47:59;;;;;;;67.90;31.63;;;;;;;3.43;76.85;100289.75;5014749;28;20502;-81
2023/12/03 09:50:27;;;;;;;63.35;30.90;;;;;;;3.46;77.10;100288.84;5014674;28;20076;-80
2023/12/03 09:52:55;;;;;;;65.70;30.02;;;;;;;3.46;77.08;100299.25;5032361;28;20050;-81
2023/12/03 09:55:27;;;;;;;62.03;30.30;;;;;;;3.46;76.83;100297.50;5031948;28;20077;-81
2023/12/03 09:57:55;;;;;;;66.43;31.92;;;;;;;3.48;77.43;100290.50;5032317;28;20050;-81
2023/12/03 10:00:23;;;;;;;63.08;31.75;;;;;;;3.50;77.78;100299.16;5032079;28;20277;-80
2023/12/03 10:02:52;;;;;;;65.97;31.13;;;;;;;3.51;77.04;100300.88;5031917;28;20139;-82
2023/12/03 10:05:19;;;;;;;64.25;31.20;;;;;;;3.56;77.51;100297.34;5032089;28;20117;-81
2023/12/03 10:07:47;;;;;;;69.35;33.50;;;;;;;3.57;77.45;100299.91;5032057;28;20072;-82
2023/12/03 10:10:17;;;;;;;65.13;31.85;;;;;;;3.60;76.90;100293.78;5031747;28;20142;-82
2023/12/03 10:12:46;;;;;;;67.47;31.35;;;;;;;3.62;77.72;100298.06;5031987;28;20048;-81
2023/12/03 10:15:16;;;;;;;65.38;32.22;;;;;;;3.64;77.12;100291.09;5031704;28;20057;-80
2023/12/03 10:17:43;;;;;;;61.42;32.40;;;;;;;3.69;77.92;100292.72;5031965;28;20060;-81
2023/12/03 10:20:27;;;;;;;58.97;31.23;;;;;;;3.70;77.10;100295.31;5014347;28;20123;-80
2023/12/03 10:22:57;;;;;;;62.25;31.33;;;;;;;3.77;77.97;100291.69;5031622;28;20107;-81
2023/12/03 10:25:31;;;;;;;68.05;31.73;;;;;;;3.82;77.57;100290.75;5014086;28;20134;-82
2023/12/03 10:28:00;;;;;;;60.70;30.75;;;;;;;3.86;77.95;100284.59;5014150;28;20476;-80
2023/12/03 10:30:27;;;;;;;61.63;30.75;;;;;;;3.90;77.66;100283.63;5031673;28;20092;-84
2023/12/03 10:32:54;;;;;;;59.67;30.50;;;;;;;3.92;77.22;100281.84;5031400;28;20061;-80
2023/12/03 10:35:25;;;;;;;65.22;31.30;;;;;;;3.94;76.78;100280.09;5013518;28;20049;-82
2023/12/03 10:37:52;;;;;;;62.13;31.10;;;;;;;3.97;77.71;100280.03;5031350;28;20482;-82
2023/12/03 10:40:19;;;;;;;60.78;30.48;;;;;;;3.99;77.18;100280.84;5031129;28;20421;-80
2023/12/03 10:42:46;;;;;;;60.70;31.48;;;;;;;4.01;77.48;100281.66;5013954;28;20077;-82
2023/12/03 10:45:15;;;;;;;59.25;29.75;;;;;;;4.03;76.70;100285.09;5013830;28;20049;-85
2023/12/03 10:47:43;;;;;;;57.53;30.15;;;;;;;4.02;76.75;100283.38;5031084;28;20085;-79
2023/12/03 10:50:13;;;;;;;57.65;30.33;;;;;;;4.01;75.89;100284.25;5031034;28;20072;-79
2023/12/03 10:52:40;;;;;;;60.85;31.05;;;;;;;4.02;76.38;100283.38;5013087;28;20498;-81
2023/12/03 10:55:09;;;;;;;61.22;31.75;;;;;;;4.01;75.91;100279.03;5031127;28;20111;-82
2023/12/03 10:57:56;;;;;;;56.35;30.17;;;;;;;3.98;75.06;100279.13;5013579;28;20088;-77
2023/12/03 11:00:28;;;;;;;59.47;30.48;;;;;;;3.98;75.54;100278.25;5030936;28;20565;-80
2023/12/03 11:03:08;;;;;;;62.35;30.52;;;;;;;3.94;75.04;100277.47;5013467;28;20050;-80
2023/12/03 11:05:43;;;;;;;60.08;32.17;;;;;;;3.94;75.49;100282.69;5013348;28;20085;-80
2023/12/03 11:08:11;;;;;;;56.65;29.48;;;;;;;3.95;76.11;100273.97;5031130;28;20100;-79
2023/12/03 11:10:39;;;;;;;58.67;31.58;;;;;;;3.95;76.80;100275.72;5030848;28;20049;-81
2023/12/03 11:13:06;;;;;;;68.20;33.25;;;;;;;3.96;76.89;100274.84;5030761;28;20489;-81
2023/12/03 11:15:33;;;;;;;62.05;32.10;;;;;;;3.99;77.03;100275.63;5030497;28;20498;-80
2023/12/03 11:18:00;;;;;;;59.75;32.38;;;;;;;4.00;77.11;100272.13;5031073;28;20053;-80